Time;durP1;ratioP1;P1;durP2;ratioP2;P2;SDS_P1;SDS_P2;PMS_P1;PMS_P2;Temp;Humidity;BMP_temperature;BMP_pressure;BME280_temperature;BME280_humidity;BME280_pressure;Samples;Min_cycle;Max_cycle;Signal;HPM_P1;HPM_P2
2021/12/22 00:00:05;;;;;;;10.17;8.67;;;;;;;;;;4994392;28;20206;-84
2021/12/22 00:02:35;;;;;;;24.77;14.70;;;;;;;;;;4994452;28;20214;-84
2021/12/22 00:05:04;;;;;;;16.03;12.00;;;;;;;;;;4993929;28;20216;-84
2021/12/22 00:07:33;;;;;;;14.10;11.67;;;;;;;;;;4993526;28;20240;-84
2021/12/22 00:10:01;;;;;;;11.50;8.73;;;;;;;;;;4994018;28;20238;-84
2021/12/22 00:12:29;;;;;;;21.57;11.03;;;;;;;;;;4994077;28;20238;-85
2021/12/22 00:14:58;;;;;;;12.77;11.17;;;;;;;;;;4994150;28;20212;-85
2021/12/22 00:17:26;;;;;;;15.27;11.90;;;;;;;;;;4996294;28;20243;-84
2021/12/22 00:19:56;;;;;;;16.67;10.17;;;;;;;;;;4998038;28;20197;-84
2021/12/22 00:22:24;;;;;;;11.03;8.03;;;;;;;;;;4997606;28;20260;-86
2021/12/22 00:24:53;;;;;;;7.90;7.07;;;;;;;;;;4997800;28;20205;-84
2021/12/22 00:27:22;;;;;;;11.20;8.10;;;;;;;;;;4997449;28;20209;-85
2021/12/22 00:29:51;;;;;;;5.83;4.20;;;;;;;;;;4997584;28;20280;-84
2021/12/22 00:32:20;;;;;;;7.93;5.40;;;;;;;;;;4997510;28;20248;-84
2021/12/22 00:34:51;;;;;;;16.73;11.07;;;;;;;;;;4997449;28;20208;-84
2021/12/22 00:37:21;;;;;;;6.17;5.07;;;;;;;;;;4997724;28;20198;-84
2021/12/22 00:39:51;;;;;;;1.80;1.80;;;;;;;;;;4997117;28;20225;-84
2021/12/22 00:42:20;;;;;;;3.00;2.90;;;;;;;;;;4997763;28;20248;-85
2021/12/22 00:44:51;;;;;;;1.30;1.30;;;;;;;;;;4997542;28;20197;-84
2021/12/22 00:47:20;;;;;;;4.07;3.47;;;;;;;;;;4997508;28;20209;-85
2021/12/22 00:49:52;;;;;;;2.70;2.60;;;;;;;;;;4997058;28;20307;-84
2021/12/22 00:52:21;;;;;;;1.10;1.10;;;;;;;;;;4997128;28;20213;-84
2021/12/22 00:54:50;;;;;;;3.47;3.27;;;;;;;;;;4997039;28;20373;-84
2021/12/22 00:57:19;;;;;;;1.07;1.07;;;;;;;;;;4997094;28;20232;-84
2021/12/22 00:59:48;;;;;;;1.27;1.27;;;;;;;;;;4997142;28;20242;-84
2021/12/22 01:02:17;;;;;;;1.00;1.00;;;;;;;;;;4996635;28;20252;-84
2021/12/22 01:04:46;;;;;;;1.20;1.20;;;;;;;;;;4997088;28;20244;-84
2021/12/22 01:07:14;;;;;;;1.10;1.10;;;;;;;;;;4996579;28;20253;-84
2021/12/22 01:09:44;;;;;;;1.20;1.20;;;;;;;;;;4996686;28;20244;-84
2021/12/22 01:12:13;;;;;;;1.60;1.60;;;;;;;;;;4997003;28;20274;-84
2021/12/22 01:14:42;;;;;;;1.10;1.10;;;;;;;;;;4996808;28;20297;-85
2021/12/22 01:17:13;;;;;;;1.30;1.30;;;;;;;;;;4996693;28;20211;-85
2021/12/22 01:19:47;;;;;;;2.37;2.33;;;;;;;;;;4996825;28;20245;-85
2021/12/22 01:22:29;;;;;;;1.73;1.73;;;;;;;;;;4996362;28;20194;-85
2021/12/22 01:25:02;;;;;;;11.30;8.13;;;;;;;;;;4996965;28;20194;-84
2021/12/22 01:27:34;;;;;;;4.73;3.50;;;;;;;;;;4996029;28;20234;-85
2021/12/22 01:30:02;;;;;;;4.70;4.50;;;;;;;;;;4996311;28;20226;-85
2021/12/22 01:32:31;;;;;;;4.23;3.87;;;;;;;;;;4996021;28;20259;-85
2021/12/22 01:34:59;;;;;;;2.27;2.17;;;;;;;;;;4996391;28;20228;-84
2021/12/22 01:37:28;;;;;;;6.63;6.00;;;;;;;;;;4996600;28;20225;-84
2021/12/22 01:39:56;;;;;;;20.50;5.57;;;;;;;;;;4996647;28;20240;-85
2021/12/22 01:42:26;;;;;;;2.30;2.13;;;;;;;;;;4996425;28;20204;-84
2021/12/22 01:45:13;;;;;;;0.90;0.90;;;;;;;;;;4996414;28;20223;-84
2021/12/22 01:50:37;;;;;;;1.20;1.20;;;;;;;;;;4941086;28;20270;-85
2021/12/22 01:53:07;;;;;;;1.33;1.33;;;;;;;;;;4995677;28;20208;-85
2021/12/22 01:55:38;;;;;;;1.10;1.10;;;;;;;;;;4995897;28;20230;-85
2021/12/22 01:58:08;;;;;;;1.20;1.20;;;;;;;;;;4996349;28;20204;-84
2021/12/22 02:00:40;;;;;;;1.57;1.57;;;;;;;;;;4996141;28;20207;-84
2021/12/22 02:03:08;;;;;;;1.10;1.10;;;;;;;;;;4996227;28;20224;-84
2021/12/22 02:05:37;;;;;;;1.10;1.10;;;;;;;;;;4996057;28;20289;-84
2021/12/22 02:08:07;;;;;;;4.57;4.40;;;;;;;;;;4996128;28;20225;-85
2021/12/22 02:10:38;;;;;;;1.10;1.10;;;;;;;;;;4995540;28;20279;-85
2021/12/22 02:13:15;;;;;;;2.50;2.43;;;;;;;;;;4976108;28;20232;-85
2021/12/22 02:15:44;;;;;;;1.10;1.10;;;;;;;;;;4976379;28;20190;-84
2021/12/22 02:18:18;;;;;;;2.50;2.40;;;;;;;;;;4976481;28;20210;-85
2021/12/22 02:20:49;;;;;;;2.43;2.43;;;;;;;;;;4976356;28;20230;-85
2021/12/22 02:23:18;;;;;;;1.00;1.00;;;;;;;;;;4976333;28;20226;-85
2021/12/22 02:25:52;;;;;;;1.30;1.30;;;;;;;;;;4976241;28;20214;-85
2021/12/22 02:28:25;;;;;;;6.07;5.63;;;;;;;;;;4976087;28;20190;-85
2021/12/22 02:30:54;;;;;;;2.30;2.30;;;;;;;;;;4976055;28;20209;-85
2021/12/22 02:33:25;;;;;;;2.27;2.17;;;;;;;;;;4976276;28;20211;-85
2021/12/22 02:36:11;;;;;;;1.20;1.20;;;;;;;;;;4975632;28;20190;-85
2021/12/22 02:38:40;;;;;;;2.40;2.30;;;;;;;;;;4975486;28;20194;-85
2021/12/22 02:41:11;;;;;;;1.10;1.10;;;;;;;;;;4975847;28;20230;-85
2021/12/22 02:43:45;;;;;;;1.30;1.30;;;;;;;;;;4975749;28;20288;-85
2021/12/22 02:46:14;;;;;;;1.10;1.10;;;;;;;;;;4975682;28;20205;-85
2021/12/22 02:48:43;;;;;;;1.10;1.10;;;;;;;;;;4975522;28;20273;-85
2021/12/22 02:51:12;;;;;;;1.10;1.10;;;;;;;;;;4975341;28;20274;-85
2021/12/22 02:53:45;;;;;;;1.47;1.47;;;;;;;;;;4975807;28;20297;-85
2021/12/22 02:56:27;;;;;;;1.13;1.13;;;;;;;;;;4975818;28;20223;-85
2021/12/22 02:59:05;;;;;;;2.80;2.70;;;;;;;;;;4975944;28;20219;-85
2021/12/22 03:04:42;;;;;;;4.03;3.67;;;;;;;;;;4916392;29;20263;-85
2021/12/22 03:07:15;;;;;;;2.07;1.77;;;;;;;;;;4965255;28;20297;-85
2021/12/22 03:09:43;;;;;;;1.73;1.63;;;;;;;;;;4975162;28;20308;-86
2021/12/22 03:12:13;;;;;;;1.20;1.20;;;;;;;;;;4986932;28;20232;-85
2021/12/22 03:14:41;;;;;;;1.60;1.50;;;;;;;;;;4994866;28;20218;-85
2021/12/22 03:17:10;;;;;;;2.43;2.33;;;;;;;;;;4994840;28;20204;-85
2021/12/22 03:19:38;;;;;;;2.60;2.40;;;;;;;;;;4994848;28;20206;-85
2021/12/22 03:22:10;;;;;;;1.10;1.10;;;;;;;;;;4994878;28;20247;-85
2021/12/22 03:24:41;;;;;;;1.97;1.87;;;;;;;;;;4994868;28;20186;-86
2021/12/22 03:27:09;;;;;;;2.73;2.63;;;;;;;;;;4994352;28;20206;-85
2021/12/22 03:29:39;;;;;;;2.20;2.10;;;;;;;;;;4994963;28;20265;-85
2021/12/22 03:32:07;;;;;;;5.73;4.27;;;;;;;;;;5010848;28;20255;-85
2021/12/22 03:34:36;;;;;;;4.27;3.97;;;;;;;;;;5014244;28;20251;-85
2021/12/22 03:37:05;;;;;;;1.77;1.77;;;;;;;;;;5014047;28;20254;-85
2021/12/22 03:39:33;;;;;;;1.37;1.37;;;;;;;;;;5013808;28;20199;-85
2021/12/22 03:42:04;;;;;;;2.40;2.30;;;;;;;;;;5014325;28;20220;-86
2021/12/22 03:44:32;;;;;;;2.60;2.50;;;;;;;;;;5014258;28;20203;-85
2021/12/22 03:47:01;;;;;;;2.23;2.13;;;;;;;;;;5013873;28;20238;-85
2021/12/22 03:49:30;;;;;;;2.07;2.03;;;;;;;;;;5014136;28;20254;-85
2021/12/22 03:51:58;;;;;;;1.50;1.50;;;;;;;;;;5016272;28;20216;-85
2021/12/22 03:54:27;;;;;;;2.07;2.07;;;;;;;;;;5017966;28;20239;-85
2021/12/22 03:56:55;;;;;;;4.27;3.17;;;;;;;;;;5017822;28;20196;-85
2021/12/22 03:59:26;;;;;;;5.73;2.53;;;;;;;;;;5017896;28;20208;-85
2021/12/22 04:01:54;;;;;;;1.87;1.83;;;;;;;;;;5018214;28;20281;-85
2021/12/22 04:04:23;;;;;;;2.83;2.63;;;;;;;;;;5010705;28;20229;-85
2021/12/22 04:06:51;;;;;;;1.30;1.30;;;;;;;;;;4998227;28;20303;-86
2021/12/22 04:09:26;;;;;;;1.50;1.50;;;;;;;;;;4997904;28;20232;-85
2021/12/22 04:11:55;;;;;;;1.13;1.13;;;;;;;;;;4997742;28;20275;-86
2021/12/22 04:14:24;;;;;;;1.10;1.10;;;;;;;;;;4998170;28;20209;-85
2021/12/22 04:16:53;;;;;;;1.10;1.10;;;;;;;;;;4997633;28;20218;-85
2021/12/22 04:19:22;;;;;;;2.23;2.13;;;;;;;;;;4998019;28;20270;-86
2021/12/22 04:21:51;;;;;;;2.53;2.43;;;;;;;;;;4998035;28;20224;-86
2021/12/22 04:24:19;;;;;;;1.20;1.20;;;;;;;;;;4998092;28;20233;-85
2021/12/22 04:26:48;;;;;;;1.10;1.10;;;;;;;;;;4997588;28;20212;-86
2021/12/22 04:29:19;;;;;;;1.60;1.60;;;;;;;;;;4997460;28;20208;-85
2021/12/22 04:31:47;;;;;;;3.87;2.67;;;;;;;;;;4997313;28;20225;-86
2021/12/22 04:34:17;;;;;;;1.60;1.60;;;;;;;;;;4997877;28;20213;-86
2021/12/22 04:36:45;;;;;;;4.17;3.67;;;;;;;;;;4997260;28;20202;-86
2021/12/22 04:39:14;;;;;;;1.50;1.50;;;;;;;;;;4997434;28;20212;-85
2021/12/22 04:41:43;;;;;;;3.90;2.90;;;;;;;;;;4997416;28;20217;-85
2021/12/22 04:44:12;;;;;;;3.73;3.53;;;;;;;;;;4997104;28;20214;-86
2021/12/22 04:46:40;;;;;;;5.20;4.90;;;;;;;;;;4997309;28;20258;-86
2021/12/22 04:49:09;;;;;;;3.20;3.10;;;;;;;;;;4997395;28;20213;-86
2021/12/22 04:51:48;;;;;;;1.97;1.93;;;;;;;;;;4997149;28;20239;-86
2021/12/22 04:54:20;;;;;;;3.67;3.23;;;;;;;;;;4997448;28;20260;-86
2021/12/22 04:56:48;;;;;;;3.37;3.17;;;;;;;;;;4997480;28;20185;-86
2021/12/22 04:59:16;;;;;;;4.53;4.23;;;;;;;;;;4997340;28;20232;-86
2021/12/22 05:01:48;;;;;;;2.67;2.57;;;;;;;;;;4997509;28;20260;-86
2021/12/22 05:04:16;;;;;;;4.77;3.33;;;;;;;;;;4996794;28;20311;-86
2021/12/22 05:06:47;;;;;;;1.47;1.43;;;;;;;;;;4997086;28;20264;-86
2021/12/22 05:09:15;;;;;;;2.30;2.20;;;;;;;;;;4997004;28;20225;-86
2021/12/22 05:11:47;;;;;;;3.93;3.70;;;;;;;;;;4996790;28;20286;-86
2021/12/22 05:14:15;;;;;;;3.57;2.60;;;;;;;;;;4996784;28;20213;-86
2021/12/22 05:16:46;;;;;;;1.40;1.40;;;;;;;;;;4996926;28;20201;-86
2021/12/22 05:19:15;;;;;;;3.30;3.17;;;;;;;;;;4997075;28;20301;-86
2021/12/22 05:21:44;;;;;;;3.53;3.23;;;;;;;;;;4996747;28;20214;-86
2021/12/22 05:24:14;;;;;;;5.47;4.40;;;;;;;;;;4996625;28;20215;-87
2021/12/22 05:26:42;;;;;;;2.03;1.93;;;;;;;;;;4996862;28;20212;-86
2021/12/22 05:29:11;;;;;;;2.23;2.03;;;;;;;;;;4996874;28;20200;-86
2021/12/22 05:31:40;;;;;;;3.17;2.90;;;;;;;;;;4996338;28;20283;-86
2021/12/22 05:34:09;;;;;;;6.57;3.87;;;;;;;;;;4996545;28;20244;-86
2021/12/22 05:36:37;;;;;;;1.97;1.87;;;;;;;;;;4996240;28;20274;-86
2021/12/22 05:39:05;;;;;;;2.63;2.53;;;;;;;;;;5007529;28;20204;-86
2021/12/22 05:41:35;;;;;;;3.10;2.90;;;;;;;;;;5016000;28;20211;-86
2021/12/22 05:44:04;;;;;;;2.63;2.53;;;;;;;;;;5010075;28;20228;-86
2021/12/22 05:46:33;;;;;;;1.77;1.73;;;;;;;;;;4995465;28;20216;-86
2021/12/22 05:49:01;;;;;;;4.07;3.77;;;;;;;;;;4996607;28;20197;-86
2021/12/22 05:51:32;;;;;;;6.43;3.57;;;;;;;;;;4995939;28;20224;-86
2021/12/22 05:54:01;;;;;;;1.73;1.73;;;;;;;;;;4996450;28;20232;-86
2021/12/22 05:56:30;;;;;;;8.23;4.03;;;;;;;;;;4996561;28;20215;-86
2021/12/22 05:59:00;;;;;;;3.97;3.57;;;;;;;;;;4995717;28;20244;-87
2021/12/22 06:01:30;;;;;;;5.67;5.23;;;;;;;;;;4995862;28;20209;-87
2021/12/22 06:04:00;;;;;;;1.50;1.50;;;;;;;;;;4996180;28;20228;-87
2021/12/22 06:06:29;;;;;;;10.43;5.33;;;;;;;;;;4995543;28;20259;-87
2021/12/22 06:09:00;;;;;;;1.80;1.80;;;;;;;;;;4995957;28;20209;-87
2021/12/22 06:11:29;;;;;;;4.43;4.10;;;;;;;;;;4995912;28;20263;-87
2021/12/22 06:13:57;;;;;;;3.30;3.10;;;;;;;;;;4995384;28;20201;-87
2021/12/22 06:16:29;;;;;;;4.67;2.80;;;;;;;;;;4995484;28;20236;-87
2021/12/22 06:19:02;;;;;;;4.53;3.27;;;;;;;;;;4995642;28;20193;-87
2021/12/22 06:21:31;;;;;;;4.63;4.33;;;;;;;;;;4995470;28;20229;-87
2021/12/22 06:23:59;;;;;;;3.47;3.17;;;;;;;;;;4994919;28;20259;-87
2021/12/22 06:26:28;;;;;;;2.30;2.20;;;;;;;;;;4995483;28;20200;-87
2021/12/22 06:28:57;;;;;;;7.87;6.60;;;;;;;;;;4995241;28;20224;-87
2021/12/22 06:31:25;;;;;;;1.43;1.40;;;;;;;;;;4995681;28;20303;-87
2021/12/22 06:33:55;;;;;;;3.97;3.57;;;;;;;;;;4995419;28;20212;-87
2021/12/22 06:36:23;;;;;;;6.90;6.37;;;;;;;;;;4995726;28;20209;-86
2021/12/22 06:38:52;;;;;;;4.40;3.77;;;;;;;;;;5004858;28;20327;-87
2021/12/22 06:41:20;;;;;;;7.77;4.00;;;;;;;;;;5014839;28;20298;-86
2021/12/22 06:43:51;;;;;;;7.37;6.67;;;;;;;;;;5015121;28;20224;-86
2021/12/22 06:46:22;;;;;;;4.63;4.43;;;;;;;;;;5014742;28;20193;-86
2021/12/22 06:48:56;;;;;;;1.27;1.27;;;;;;;;;;5014940;28;20201;-86
2021/12/22 06:51:25;;;;;;;1.43;1.43;;;;;;;;;;5014784;28;20243;-86
2021/12/22 06:53:53;;;;;;;12.40;9.67;;;;;;;;;;5014946;28;20223;-86
2021/12/22 06:56:21;;;;;;;5.70;4.17;;;;;;;;;;5014701;28;20208;-86
2021/12/22 06:58:50;;;;;;;17.17;11.57;;;;;;;;;;5014875;28;20259;-86
2021/12/22 07:01:20;;;;;;;13.13;7.87;;;;;;;;;;5014805;28;20207;-86
2021/12/22 07:03:50;;;;;;;22.17;14.13;;;;;;;;;;5014706;28;20235;-85
2021/12/22 07:06:20;;;;;;;27.20;17.30;;;;;;;;;;5014438;28;20274;-86
2021/12/22 07:08:48;;;;;;;24.47;15.17;;;;;;;;;;5014588;28;20207;-86
2021/12/22 07:11:17;;;;;;;23.57;17.43;;;;;;;;;;5014566;28;20211;-85
2021/12/22 07:13:45;;;;;;;6.17;3.97;;;;;;;;;;5014425;28;20296;-85
2021/12/22 07:16:14;;;;;;;17.33;12.13;;;;;;;;;;5014211;28;20236;-85
2021/12/22 07:18:43;;;;;;;23.43;14.13;;;;;;;;;;5014296;28;20211;-84
2021/12/22 07:21:11;;;;;;;28.30;17.10;;;;;;;;;;5014593;28;20223;-86
2021/12/22 07:23:41;;;;;;;33.23;21.87;;;;;;;;;;5014247;28;20208;-85
2021/12/22 07:26:13;;;;;;;28.43;18.80;;;;;;;;;;5014734;28;20202;-85
2021/12/22 07:28:42;;;;;;;28.37;16.30;;;;;;;;;;5018329;28;20282;-85
2021/12/22 07:31:11;;;;;;;31.90;22.33;;;;;;;;;;5021658;28;20303;-86
2021/12/22 07:33:40;;;;;;;31.40;23.33;;;;;;;;;;5017616;28;20227;-85
2021/12/22 07:36:09;;;;;;;26.83;17.80;;;;;;;;;;5018257;28;20227;-85
2021/12/22 07:41:31;;;;;;;32.93;22.80;;;;;;;;;;5018745;28;20218;-85
2021/12/22 07:44:02;;;;;;;34.50;19.60;;;;;;;;;;5018243;28;20199;-85
2021/12/22 07:46:31;;;;;;;36.70;22.33;;;;;;;;;;5018133;28;20210;-85
2021/12/22 07:49:04;;;;;;;31.27;22.33;;;;;;;;;;5017811;28;20234;-86
2021/12/22 07:51:35;;;;;;;6.80;3.80;;;;;;;;;;5018109;28;20214;-85
2021/12/22 07:54:03;;;;;;;30.33;21.10;;;;;;;;;;5017880;28;20204;-85
2021/12/22 07:56:34;;;;;;;20.80;18.03;;;;;;;;;;5018053;28;20462;-85
2021/12/22 07:59:02;;;;;;;26.77;17.63;;;;;;;;;;5017640;28;20294;-84
2021/12/22 08:01:32;;;;;;;30.30;19.47;;;;;;;;;;5018262;28;20290;-84
2021/12/22 08:04:01;;;;;;;32.83;22.13;;;;;;;;;;5018038;28;20281;-83
2021/12/22 08:06:30;;;;;;;29.60;19.67;;;;;;;;;;5017908;28;20231;-83
2021/12/22 08:08:59;;;;;;;31.60;23.07;;;;;;;;;;5017874;28;20231;-84
2021/12/22 08:11:27;;;;;;;33.20;23.17;;;;;;;;;;5017923;28;20212;-85
2021/12/22 08:13:57;;;;;;;26.83;17.53;;;;;;;;;;5017558;28;20485;-85
2021/12/22 08:16:31;;;;;;;29.57;21.97;;;;;;;;;;5018052;28;20246;-85
2021/12/22 08:19:00;;;;;;;27.43;19.13;;;;;;;;;;5018283;28;20204;-84
2021/12/22 08:21:29;;;;;;;34.33;21.60;;;;;;;;;;5017962;28;20215;-85
2021/12/22 08:23:57;;;;;;;31.77;22.43;;;;;;;;;;5017795;28;20203;-84
2021/12/22 08:26:27;;;;;;;36.17;20.00;;;;;;;;;;5017596;28;20220;-85
2021/12/22 08:28:58;;;;;;;34.87;22.77;;;;;;;;;;5021020;28;20196;-85
2021/12/22 08:31:26;;;;;;;32.53;22.30;;;;;;;;;;5021309;28;20214;-85
2021/12/22 08:33:57;;;;;;;29.53;18.47;;;;;;;;;;5021297;28;20199;-85
2021/12/22 08:39:14;;;;;;;26.63;18.43;;;;;;;;;;5017408;28;20227;-85
2021/12/22 08:41:47;;;;;;;13.60;10.50;;;;;;;;;;5021469;28;20445;-85
2021/12/22 08:44:18;;;;;;;33.50;21.13;;;;;;;;;;5005675;28;20290;-85
2021/12/22 08:46:49;;;;;;;20.70;13.10;;;;;;;;;;5012723;28;20218;-84
2021/12/22 08:49:19;;;;;;;30.13;22.80;;;;;;;;;;5001756;28;20271;-86
2021/12/22 08:51:54;;;;;;;23.27;16.63;;;;;;;;;;5019011;28;20234;-86
2021/12/22 08:54:22;;;;;;;33.07;25.70;;;;;;;;;;5010489;28;20219;-85
2021/12/22 08:56:55;;;;;;;13.20;10.37;;;;;;;;;;5004064;28;20222;-84
2021/12/22 08:59:25;;;;;;;20.40;14.30;;;;;;;;;;5002316;28;20498;-84
2021/12/22 09:01:54;;;;;;;31.10;22.30;;;;;;;;;;5015539;28;20306;-84
2021/12/22 09:04:23;;;;;;;32.17;20.97;;;;;;;;;;5006620;28;20235;-84
2021/12/22 09:06:52;;;;;;;32.53;20.73;;;;;;;;;;5010530;28;20570;-86
2021/12/22 09:09:23;;;;;;;36.57;21.90;;;;;;;;;;4996776;28;20208;-85
2021/12/22 09:11:52;;;;;;;36.43;28.77;;;;;;;;;;4997169;28;20200;-84
2021/12/22 09:14:21;;;;;;;36.97;27.00;;;;;;;;;;5004219;28;20231;-85
2021/12/22 09:16:52;;;;;;;12.67;8.60;;;;;;;;;;5016009;28;20196;-84
2021/12/22 09:19:23;;;;;;;27.30;21.13;;;;;;;;;;5016361;28;20430;-85
2021/12/22 09:21:52;;;;;;;33.47;19.73;;;;;;;;;;5016144;28;20206;-86
2021/12/22 09:24:20;;;;;;;23.67;17.20;;;;;;;;;;5016278;28;20199;-85
2021/12/22 09:26:51;;;;;;;14.73;9.73;;;;;;;;;;5016481;28;20239;-84
2021/12/22 09:29:19;;;;;;;14.57;10.93;;;;;;;;;;5003471;28;20209;-85
2021/12/22 09:31:48;;;;;;;19.37;15.27;;;;;;;;;;5002567;28;20234;-84
2021/12/22 09:34:18;;;;;;;32.20;21.83;;;;;;;;;;5011690;28;20286;-84
2021/12/22 09:36:49;;;;;;;35.03;23.47;;;;;;;;;;5005583;28;20262;-84
2021/12/22 09:39:17;;;;;;;23.63;16.73;;;;;;;;;;4995112;28;20204;-84
2021/12/22 09:41:46;;;;;;;28.70;20.63;;;;;;;;;;4999395;28;20234;-84
2021/12/22 09:44:15;;;;;;;23.77;13.80;;;;;;;;;;5012218;28;20246;-84
2021/12/22 09:46:45;;;;;;;16.03;12.03;;;;;;;;;;5014671;28;20207;-84
2021/12/22 09:49:34;;;;;;;22.27;15.50;;;;;;;;;;5015105;28;20256;-84
2021/12/22 09:52:19;;;;;;;24.45;14.75;;;;;;;;;;5010725;28;20522;-84
2021/12/22 09:54:48;;;;;;;9.20;8.33;;;;;;;;;;4995749;28;20251;-85
2021/12/22 09:57:18;;;;;;;11.50;10.20;;;;;;;;;;5014974;28;20229;-83
2021/12/22 09:59:47;;;;;;;26.63;19.13;;;;;;;;;;5015210;28;20212;-84
2021/12/22 10:02:16;;;;;;;26.80;19.90;;;;;;;;;;5015212;28;20218;-84
2021/12/22 10:04:45;;;;;;;40.20;27.43;;;;;;;;;;5013220;28;20279;-83
2021/12/22 10:07:19;;;;;;;31.20;22.23;;;;;;;;;;4994824;28;20231;-83
2021/12/22 10:09:48;;;;;;;10.30;8.20;;;;;;;;;;5005087;28;20207;-84
2021/12/22 10:12:18;;;;;;;29.13;15.17;;;;;;;;;;5014788;28;20269;-85
2021/12/22 10:14:49;;;;;;;14.37;9.73;;;;;;;;;;5015109;28;20220;-84
2021/12/22 10:17:29;;;;;;;32.97;21.63;;;;;;;;;;5015377;28;20215;-84
2021/12/22 10:19:57;;;;;;;12.97;11.70;;;;;;;;;;5014782;28;20216;-84
2021/12/22 10:22:35;;;;;;;26.43;15.60;;;;;;;;;;5006444;28;20221;-84
2021/12/22 10:25:08;;;;;;;24.80;18.27;;;;;;;;;;4998035;28;20198;-84
2021/12/22 10:27:37;;;;;;;30.93;21.53;;;;;;;;;;5011515;28;20232;-83
2021/12/22 10:30:22;;;;;;;33.33;21.53;;;;;;;;;;5000373;28;20372;-85
2021/12/22 10:32:51;;;;;;;33.67;21.43;;;;;;;;;;4993038;28;20204;-84
2021/12/22 10:35:19;;;;;;;22.20;15.33;;;;;;;;;;4994512;28;20317;-85
2021/12/22 10:37:50;;;;;;;33.47;22.33;;;;;;;;;;4995106;28;20390;-85
2021/12/22 10:40:23;;;;;;;27.40;21.00;;;;;;;;;;4995652;28;20235;-85
2021/12/22 10:42:52;;;;;;;30.67;24.93;;;;;;;;;;5014342;28;20208;-85
2021/12/22 10:45:21;;;;;;;34.77;24.57;;;;;;;;;;5014420;28;20208;-86
2021/12/22 10:50:38;;;;;;;36.37;27.63;;;;;;;;;;4991399;28;20215;-86
2021/12/22 10:53:11;;;;;;;9.43;7.13;;;;;;;;;;4984418;28;20201;-86
2021/12/22 10:55:42;;;;;;;15.37;10.70;;;;;;;;;;4986603;28;20248;-83
2021/12/22 10:58:18;;;;;;;35.03;25.10;;;;;;;;;;4988617;28;20206;-83
2021/12/22 11:00:59;;;;;;;36.70;20.43;;;;;;;;;;4987859;28;20204;-85
2021/12/22 11:03:36;;;;;;;26.73;19.83;;;;;;;;;;4989770;28;20233;-88
2021/12/22 11:06:27;;;;;;;7.73;4.37;;;;;;;;;;4991540;28;20206;-88
2021/12/22 11:09:02;;;;;;;28.70;18.13;;;;;;;;;;4986473;28;20229;-88
2021/12/22 11:11:36;;;;;;;29.90;24.80;;;;;;;;;;4994128;28;20280;-87
2021/12/22 11:14:08;;;;;;;31.60;23.10;;;;;;;;;;4991141;28;20247;-87
2021/12/22 11:17:07;;;;;;;22.83;15.60;;;;;;;;;;4984830;28;20222;-85
2021/12/22 11:19:36;;;;;;;38.43;30.23;;;;;;;;;;4991844;28;20214;-86
2021/12/22 11:22:09;;;;;;;42.63;30.70;;;;;;;;;;5000833;28;20272;-85
2021/12/22 11:24:44;;;;;;;27.07;17.00;;;;;;;;;;4988036;28;20211;-86
2021/12/22 11:30:58;;;;;;;25.13;18.80;;;;;;;;;;4988916;28;20222;-88
2021/12/22 11:33:38;;;;;;;30.93;21.50;;;;;;;;;;4992547;28;20217;-86
2021/12/22 11:36:12;;;;;;;24.17;17.00;;;;;;;;;;4993789;28;20213;-86
2021/12/22 11:38:46;;;;;;;32.07;20.87;;;;;;;;;;4993697;28;20205;-87
2021/12/22 11:41:19;;;;;;;29.47;24.87;;;;;;;;;;4993069;28;20209;-86
2021/12/22 11:43:49;;;;;;;11.57;9.10;;;;;;;;;;4991110;28;20205;-87
2021/12/22 11:46:28;;;;;;;30.23;22.30;;;;;;;;;;4997775;28;20234;-88
2021/12/22 11:49:01;;;;;;;30.00;23.10;;;;;;;;;;4996745;28;20228;-87
2021/12/22 11:51:33;;;;;;;19.37;15.20;;;;;;;;;;4997315;28;20201;-86
2021/12/22 11:54:02;;;;;;;23.73;19.10;;;;;;;;;;4983914;28;20273;-87
2021/12/22 11:56:42;;;;;;;28.30;20.93;;;;;;;;;;4989113;28;20204;-86
2021/12/22 11:59:25;;;;;;;24.23;19.80;;;;;;;;;;4991309;28;20212;-82
2021/12/22 12:02:13;;;;;;;8.67;6.67;;;;;;;;;;4991074;28;20210;-88
2021/12/22 12:04:43;;;;;;;8.83;5.70;;;;;;;;;;4993341;28;20309;-92
2021/12/22 12:07:32;;;;;;;17.30;13.13;;;;;;;;;;4996514;28;20286;-88
2021/12/22 12:10:15;;;;;;;22.43;12.83;;;;;;;;;;4991151;28;20215;-88
2021/12/22 12:13:00;;;;;;;9.40;8.37;;;;;;;;;;4993756;28;20266;-90
2021/12/22 12:15:58;;;;;;;21.00;16.03;;;;;;;;;;4998703;28;20254;-88
2021/12/22 12:21:46;;;;;;;13.63;9.53;;;;;;;;;;4998302;28;20199;-88
2021/12/22 12:24:41;;;;;;;15.93;6.63;;;;;;;;;;4996448;28;20244;-87
2021/12/22 12:27:29;;;;;;;8.27;7.57;;;;;;;;;;4950859;28;20239;-88
2021/12/22 12:30:04;;;;;;;20.17;13.07;;;;;;;;;;4992418;28;20259;-87
2021/12/22 12:32:55;;;;;;;17.97;12.77;;;;;;;;;;4988738;28;20292;-86
2021/12/22 12:35:26;;;;;;;16.27;13.53;;;;;;;;;;4987515;28;20228;-86
2021/12/22 12:38:08;;;;;;;12.40;10.20;;;;;;;;;;4994465;28;20207;-89
2021/12/22 12:41:11;;;;;;;16.73;13.10;;;;;;;;;;4991221;28;20215;-86
2021/12/22 12:43:52;;;;;;;10.60;9.30;;;;;;;;;;4987190;28;20212;-86
2021/12/22 12:46:43;;;;;;;16.03;9.27;;;;;;;;;;4991123;28;20211;-86
2021/12/22 12:49:36;;;;;;;12.13;8.00;;;;;;;;;;4991874;28;20208;-87
2021/12/22 12:52:10;;;;;;;9.47;8.47;;;;;;;;;;4989587;28;20211;-84
2021/12/22 12:54:44;;;;;;;11.90;10.23;;;;;;;;;;4994322;28;20218;-83
2021/12/22 12:57:38;;;;;;;10.23;8.27;;;;;;;;;;4993840;28;20206;-87
2021/12/22 13:00:08;;;;;;;5.50;5.03;;;;;;;;;;4995116;28;20204;-83
2021/12/22 13:02:45;;;;;;;21.10;12.17;;;;;;;;;;4996376;28;20211;-86
2021/12/22 13:05:18;;;;;;;16.70;7.53;;;;;;;;;;4991442;28;20279;-87
2021/12/22 13:07:47;;;;;;;6.07;5.50;;;;;;;;;;4990268;28;20267;-84
2021/12/22 13:10:23;;;;;;;13.00;9.60;;;;;;;;;;4994696;28;20200;-85
2021/12/22 13:13:14;;;;;;;8.90;7.47;;;;;;;;;;4990294;28;20215;-88
2021/12/22 13:15:51;;;;;;;5.37;4.60;;;;;;;;;;4993072;28;20230;-87
2021/12/22 13:18:24;;;;;;;9.93;5.90;;;;;;;;;;4992124;28;20223;-84
2021/12/22 13:20:57;;;;;;;9.43;7.60;;;;;;;;;;4990171;28;20207;-83
2021/12/22 13:23:31;;;;;;;19.73;13.33;;;;;;;;;;4987683;28;20221;-85
2021/12/22 13:26:02;;;;;;;11.10;6.13;;;;;;;;;;4990897;28;20210;-84
2021/12/22 13:28:32;;;;;;;9.43;8.43;;;;;;;;;;4991368;28;20219;-91
2021/12/22 13:31:06;;;;;;;14.80;10.10;;;;;;;;;;4992317;28;20211;-91
2021/12/22 13:34:02;;;;;;;4.50;4.17;;;;;;;;;;4996503;28;20207;-89
2021/12/22 13:36:34;;;;;;;9.93;7.30;;;;;;;;;;4991775;28;20217;-90
2021/12/22 13:39:08;;;;;;;14.33;7.87;;;;;;;;;;4991961;28;20231;-88
2021/12/22 13:41:39;;;;;;;18.77;12.37;;;;;;;;;;4995031;28;20214;-87
2021/12/22 13:44:09;;;;;;;14.80;10.00;;;;;;;;;;4994280;28;20271;-87
2021/12/22 13:46:39;;;;;;;5.17;4.60;;;;;;;;;;4997711;28;20251;-82
2021/12/22 13:49:12;;;;;;;7.30;5.00;;;;;;;;;;4992420;28;20291;-84
2021/12/22 13:51:43;;;;;;;19.83;10.60;;;;;;;;;;4995266;28;20227;-83
2021/12/22 13:54:13;;;;;;;19.00;13.47;;;;;;;;;;4990205;28;20262;-84
2021/12/22 13:56:42;;;;;;;7.10;5.83;;;;;;;;;;4989209;28;20255;-90
2021/12/22 13:59:11;;;;;;;16.80;10.53;;;;;;;;;;4989945;28;20220;-85
2021/12/22 14:01:42;;;;;;;10.20;8.50;;;;;;;;;;4995121;28;20288;-84
2021/12/22 14:04:14;;;;;;;8.90;6.00;;;;;;;;;;4995522;28;20232;-81
2021/12/22 14:06:49;;;;;;;10.07;8.53;;;;;;;;;;4991326;28;20247;-86
2021/12/22 14:09:19;;;;;;;6.57;6.07;;;;;;;;;;4992685;28;20208;-85
2021/12/22 14:12:09;;;;;;;10.33;7.20;;;;;;;;;;4994468;28;21636;-89
2021/12/22 14:14:39;;;;;;;5.07;4.60;;;;;;;;;;4989052;28;20197;-85
2021/12/22 14:17:09;;;;;;;7.33;6.53;;;;;;;;;;4994934;28;20223;-88
2021/12/22 14:19:40;;;;;;;10.27;7.83;;;;;;;;;;4991176;28;20216;-87
2021/12/22 14:22:14;;;;;;;7.73;5.07;;;;;;;;;;4993425;28;20270;-88
2021/12/22 14:24:43;;;;;;;7.07;6.13;;;;;;;;;;4989517;28;20213;-82
2021/12/22 14:27:14;;;;;;;6.43;5.77;;;;;;;;;;4994835;28;20213;-88
2021/12/22 14:29:51;;;;;;;8.37;6.67;;;;;;;;;;4986071;28;20239;-89
2021/12/22 14:32:25;;;;;;;12.23;7.83;;;;;;;;;;4995647;28;20192;-89
2021/12/22 14:35:02;;;;;;;1.53;1.53;;;;;;;;;;4987058;28;20205;-85
2021/12/22 14:37:31;;;;;;;1.10;1.10;;;;;;;;;;4993035;28;20220;-88
2021/12/22 14:40:02;;;;;;;1.53;1.53;;;;;;;;;;4992961;28;20212;-89
2021/12/22 14:42:42;;;;;;;1.30;1.30;;;;;;;;;;4992915;28;20267;-86
2021/12/22 14:45:30;;;;;;;1.90;1.40;;;;;;;;;;4994840;28;20215;-89
2021/12/22 14:48:26;;;;;;;1.03;1.03;;;;;;;;;;4993838;28;20291;-85
2021/12/22 14:51:01;;;;;;;4.60;3.07;;;;;;;;;;4994025;28;20212;-84
2021/12/22 14:53:42;;;;;;;7.33;5.90;;;;;;;;;;4990703;28;20218;-84
2021/12/22 14:56:12;;;;;;;7.57;5.63;;;;;;;;;;4991836;28;20231;-87
2021/12/22 14:58:42;;;;;;;7.50;4.37;;;;;;;;;;4989974;28;20200;-90
2021/12/22 15:01:11;;;;;;;8.73;6.47;;;;;;;;;;4990224;28;20208;-89
2021/12/22 15:03:41;;;;;;;4.80;4.27;;;;;;;;;;4988911;28;20248;-89
2021/12/22 15:06:12;;;;;;;1.30;1.30;;;;;;;;;;4993828;28;20251;-90
2021/12/22 15:08:41;;;;;;;1.00;1.00;;;;;;;;;;4993452;28;20243;-90
2021/12/22 15:11:10;;;;;;;3.30;1.40;;;;;;;;;;4994757;28;20219;-89
2021/12/22 15:13:42;;;;;;;4.70;3.23;;;;;;;;;;4994295;28;20219;-89
2021/12/22 15:16:12;;;;;;;1.57;1.57;;;;;;;;;;4992207;28;20234;-90
2021/12/22 15:18:43;;;;;;;1.73;1.73;;;;;;;;;;4993817;28;20217;-90
2021/12/22 15:21:14;;;;;;;0.93;0.93;;;;;;;;;;4987997;28;20235;-89